Time;durP1;ratioP1;P1;durP2;ratioP2;P2;SDS_P1;SDS_P2;PMS_P1;PMS_P2;Temp;Humidity;BMP_temperature;BMP_pressure;BME280_temperature;BME280_humidity;BME280_pressure;Samples;Min_cycle;Max_cycle;Signal;HPM_P1;HPM_P2
2022/06/23 00:00:23;;;;;;;7.55;4.25;;;13.90;99.90;;;;;;6247275;23;20020;-82
2022/06/23 00:02:50;;;;;;;6.45;4.75;;;13.90;99.90;;;;;;6220128;23;20447;-81
2022/06/23 00:05:20;;;;;;;7.75;4.30;;;13.90;99.90;;;;;;6247414;23;20020;-81
2022/06/23 00:07:51;;;;;;;5.93;4.55;;;13.80;99.90;;;;;;6195291;23;20091;-80
2022/06/23 00:10:20;;;;;;;8.07;4.53;;;13.80;99.90;;;;;;6220735;23;20055;-80
2022/06/23 00:12:46;;;;;;;7.03;4.30;;;13.80;99.90;;;;;;6220777;23;20424;-80
2022/06/23 00:15:18;;;;;;;7.68;4.68;;;13.80;99.90;;;;;;6247122;23;20016;-81
2022/06/23 00:17:45;;;;;;;8.38;4.68;;;13.70;99.90;;;;;;6221070;23;20022;-81
2022/06/23 00:20:21;;;;;;;6.47;4.47;;;13.70;99.90;;;;;;6221045;23;20094;-81
2022/06/23 00:22:53;;;;;;;9.18;4.95;;;13.70;99.90;;;;;;6220819;23;20043;-80
2022/06/23 00:25:31;;;;;;;9.88;5.25;;;13.70;99.90;;;;;;6220474;23;20020;-81
2022/06/23 00:27:58;;;;;;;8.15;5.43;;;13.70;99.90;;;;;;6220296;23;20115;-81
2022/06/23 00:30:44;;;;;;;6.90;4.97;;;13.70;99.90;;;;;;6220418;23;20039;-81
2022/06/23 00:33:38;;;;;;;7.07;5.10;;;13.70;99.90;;;;;;6219262;23;20016;-80
2022/06/23 00:36:33;;;;;;;8.13;5.20;;;13.70;99.90;;;;;;6219821;23;20016;-81
2022/06/23 00:38:59;;;;;;;7.28;4.07;;;13.70;99.90;;;;;;6247160;23;20020;-81
2022/06/23 00:41:32;;;;;;;11.38;5.82;;;13.60;99.90;;;;;;6247045;23;20016;-81
2022/06/23 00:44:06;;;;;;;5.82;4.57;;;13.60;99.90;;;;;;6195520;23;20020;-80
2022/06/23 00:46:43;;;;;;;7.05;5.03;;;13.60;99.90;;;;;;6219686;23;20016;-82
2022/06/23 00:49:16;;;;;;;6.55;4.80;;;13.60;99.90;;;;;;6220363;23;20094;-79
2022/06/23 00:51:48;;;;;;;6.32;4.70;;;13.60;99.90;;;;;;6246972;23;20016;-80
2022/06/23 00:54:28;;;;;;;8.48;6.18;;;13.60;99.90;;;;;;6220067;23;20042;-80
2022/06/23 00:57:03;;;;;;;6.53;5.30;;;13.50;99.90;;;;;;6246935;23;20012;-80
2022/06/23 00:59:44;;;;;;;7.47;5.50;;;13.40;99.90;;;;;;6220112;23;20329;-80
2022/06/23 01:02:22;;;;;;;9.00;5.68;;;13.50;99.90;;;;;;6246836;23;20055;-80
2022/06/23 01:05:03;;;;;;;8.48;6.13;;;13.40;99.90;;;;;;6220253;23;20016;-80
2022/06/23 01:07:38;;;;;;;8.85;5.82;;;13.40;99.90;;;;;;6220117;23;20023;-81
2022/06/23 01:10:22;;;;;;;7.57;6.18;;;13.30;99.90;;;;;;6220573;23;20016;-80
2022/06/23 01:12:52;;;;;;;7.57;5.78;;;13.30;99.90;;;;;;6220238;23;20018;-80
2022/06/23 01:15:36;;;;;;;8.60;5.30;;;13.30;99.90;;;;;;6246660;23;20020;-81
2022/06/23 01:18:21;;;;;;;9.15;5.88;;;13.20;99.90;;;;;;6219664;23;20439;-81
2022/06/23 01:20:58;;;;;;;8.40;6.03;;;13.20;99.90;;;;;;6247094;23;20024;-80
2022/06/23 01:23:56;;;;;;;10.43;5.97;;;13.20;99.90;;;;;;6219582;23;20027;-80
2022/06/23 01:26:40;;;;;;;7.63;5.43;;;13.20;99.90;;;;;;6245994;23;20027;-81
2022/06/23 01:29:29;;;;;;;8.98;6.95;;;13.20;99.90;;;;;;6194857;23;20434;-80
2022/06/23 01:32:13;;;;;;;9.13;5.78;;;13.10;99.90;;;;;;6246662;23;20027;-80
2022/06/23 01:34:41;;;;;;;10.93;7.05;;;13.10;99.90;;;;;;6219890;23;20436;-80
2022/06/23 01:37:39;;;;;;;10.52;7.75;;;13.10;99.90;;;;;;6219721;23;20024;-81
2022/06/23 01:40:26;;;;;;;10.35;7.00;;;13.10;99.90;;;;;;6219483;23;20522;-80
2022/06/23 01:43:13;;;;;;;10.45;6.68;;;13.00;99.90;;;;;;6246483;23;20023;-80
2022/06/23 01:45:57;;;;;;;10.45;6.93;;;13.00;99.90;;;;;;6246344;23;20035;-81
2022/06/23 01:51:30;;;;;;;11.43;7.90;;;12.90;99.90;;;;;;6219638;23;20026;-81
2022/06/23 01:54:21;;;;;;;10.70;6.93;;;12.90;99.90;;;;;;6246253;23;20051;-81
2022/06/23 01:57:06;;;;;;;9.48;7.60;;;12.90;99.90;;;;;;6246273;22;20055;-81
2022/06/23 01:59:56;;;;;;;11.60;7.80;;;12.90;99.90;;;;;;6219907;23;20031;-81
2022/06/23 02:02:50;;;;;;;11.82;7.78;;;12.80;99.90;;;;;;6245891;23;20020;-80
2022/06/23 02:05:26;;;;;;;11.52;7.18;;;12.90;99.90;;;;;;6246354;23;20023;-81
2022/06/23 02:08:01;;;;;;;11.63;7.88;;;12.80;99.90;;;;;;6194168;23;20016;-80
2022/06/23 02:10:52;;;;;;;11.48;7.43;;;12.80;99.90;;;;;;6219578;23;20020;-81
2022/06/23 02:13:27;;;;;;;14.60;8.65;;;12.70;99.90;;;;;;6246248;23;20020;-81
2022/06/23 02:16:23;;;;;;;10.52;8.15;;;12.70;99.90;;;;;;6246647;23;20039;-81
2022/06/23 02:18:56;;;;;;;11.13;7.43;;;12.70;99.90;;;;;;6194646;23;20056;-81
2022/06/23 02:21:44;;;;;;;11.38;7.75;;;12.60;99.90;;;;;;6219530;23;20016;-80
2022/06/23 02:24:24;;;;;;;13.88;8.43;;;12.60;99.90;;;;;;6219690;23;20012;-81
2022/06/23 02:27:13;;;;;;;12.63;7.80;;;12.50;99.90;;;;;;6246139;23;20058;-81
2022/06/23 02:29:56;;;;;;;11.38;8.18;;;12.50;99.90;;;;;;6219296;23;20027;-80
2022/06/23 02:32:39;;;;;;;11.35;8.35;;;12.50;99.90;;;;;;6194957;23;20020;-81
2022/06/23 02:35:20;;;;;;;12.73;8.43;;;12.50;99.90;;;;;;6221397;23;20448;-81
2022/06/23 02:37:54;;;;;;;11.13;8.00;;;12.40;99.90;;;;;;6248464;23;20016;-81
2022/06/23 02:40:38;;;;;;;14.07;8.70;;;12.50;99.90;;;;;;6196782;23;20020;-81
2022/06/23 02:43:25;;;;;;;16.63;8.48;;;12.40;99.90;;;;;;6248252;23;20078;-81
2022/06/23 02:45:59;;;;;;;12.90;8.27;;;12.40;99.90;;;;;;6221492;23;20024;-81
2022/06/23 02:48:59;;;;;;;12.68;8.18;;;12.40;99.90;;;;;;6220784;23;20020;-81
2022/06/23 02:51:40;;;;;;;14.82;8.60;;;12.40;99.90;;;;;;6222012;23;20385;-81
2022/06/23 02:54:39;;;;;;;14.38;8.32;;;12.30;99.90;;;;;;6221248;23;20062;-81
2022/06/23 02:57:23;;;;;;;11.77;7.43;;;12.30;99.90;;;;;;6221079;23;20031;-80
2022/06/23 02:59:56;;;;;;;14.20;8.88;;;12.40;99.90;;;;;;6247885;23;20062;-81
2022/06/23 03:02:42;;;;;;;12.77;9.10;;;12.30;99.90;;;;;;6248010;23;20012;-81
2022/06/23 03:05:17;;;;;;;11.88;8.32;;;12.30;99.90;;;;;;6220620;23;20017;-81
2022/06/23 03:07:52;;;;;;;14.40;8.93;;;12.30;99.90;;;;;;6221376;23;20016;-81
2022/06/23 03:10:25;;;;;;;13.75;9.07;;;12.30;99.90;;;;;;6248265;23;20016;-81
2022/06/23 03:13:06;;;;;;;13.02;8.93;;;12.20;99.90;;;;;;6221258;23;20020;-81
2022/06/23 03:16:01;;;;;;;17.57;8.93;;;12.30;99.90;;;;;;6248033;23;20431;-81
2022/06/23 03:18:56;;;;;;;14.35;9.15;;;12.20;99.90;;;;;;6214657;23;20095;-81
2022/06/23 03:21:36;;;;;;;11.57;7.70;;;12.20;99.90;;;;;;6221135;23;20016;-81
2022/06/23 03:24:06;;;;;;;14.75;9.27;;;12.20;99.90;;;;;;6221198;23;20020;-81
2022/06/23 03:26:52;;;;;;;14.75;10.07;;;12.10;99.90;;;;;;6221366;23;20027;-81
2022/06/23 03:29:31;;;;;;;17.05;9.77;;;12.20;99.90;;;;;;6220969;23;20012;-81
2022/06/23 03:32:03;;;;;;;14.90;10.50;;;12.20;99.90;;;;;;6221101;23;20023;-80
2022/06/23 03:34:48;;;;;;;10.75;8.52;;;12.20;99.90;;;;;;6220867;23;20016;-82
2022/06/23 03:37:38;;;;;;;11.23;8.90;;;12.20;99.90;;;;;;6220940;23;20091;-81
2022/06/23 03:43:43;;;;;;;13.68;9.15;;;12.20;99.90;;;;;;6101497;23;20022;-80
2022/06/23 03:46:26;;;;;;;13.40;9.45;;;12.20;99.90;;;;;;6101821;23;20022;-81
2022/06/23 03:49:20;;;;;;;13.60;9.40;;;12.20;99.90;;;;;;6125401;23;20048;-81
2022/06/23 03:51:55;;;;;;;13.93;9.70;;;12.20;99.90;;;;;;6125799;23;20451;-81
2022/06/23 03:54:29;;;;;;;12.65;9.18;;;12.20;99.90;;;;;;6125338;23;20014;-81
2022/06/23 03:57:22;;;;;;;15.35;9.48;;;12.20;99.90;;;;;;6124950;23;20022;-81
2022/06/23 04:00:06;;;;;;;17.58;10.40;;;12.20;99.90;;;;;;6124805;23;20029;-81
2022/06/23 04:02:41;;;;;;;15.95;10.15;;;12.30;99.90;;;;;;6125113;23;20022;-80
2022/06/23 04:05:06;;;;;;;12.98;9.38;;;12.30;99.90;;;;;;6125001;23;20026;-81
2022/06/23 04:07:34;;;;;;;11.82;8.93;;;12.40;99.90;;;;;;6100808;23;20057;-81
2022/06/23 04:10:07;;;;;;;13.95;10.00;;;12.30;99.90;;;;;;6100437;23;20025;-81
2022/06/23 04:12:37;;;;;;;14.75;10.77;;;12.30;99.90;;;;;;6124804;23;20582;-81
2022/06/23 04:15:25;;;;;;;13.30;9.80;;;12.40;99.90;;;;;;6124769;23;20018;-81
2022/06/23 04:17:56;;;;;;;14.07;9.68;;;12.40;99.90;;;;;;6200350;23;20451;-81
2022/06/23 04:20:33;;;;;;;16.33;9.25;;;12.40;99.90;;;;;;6247311;23;20336;-81
2022/06/23 04:23:01;;;;;;;16.90;10.90;;;12.50;99.90;;;;;;6220411;23;20012;-81
2022/06/23 04:25:45;;;;;;;16.05;11.10;;;12.60;99.90;;;;;;6247829;23;20070;-81
2022/06/23 04:28:27;;;;;;;12.40;9.70;;;12.60;99.90;;;;;;6220464;23;20027;-82
2022/06/23 04:30:55;;;;;;;14.73;9.48;;;12.70;99.90;;;;;;6247110;23;20016;-82
2022/06/23 04:33:24;;;;;;;13.93;10.35;;;12.80;99.90;;;;;;6247335;23;20020;-81
2022/06/23 04:35:58;;;;;;;14.32;9.88;;;12.90;99.90;;;;;;6247162;23;20076;-82
2022/06/23 04:38:45;;;;;;;13.40;9.80;;;12.90;99.90;;;;;;6220127;23;20570;-81
2022/06/23 04:41:27;;;;;;;12.23;8.50;;;13.00;99.90;;;;;;6195324;23;20456;-81
2022/06/23 04:43:55;;;;;;;13.98;10.25;;;13.10;99.90;;;;;;6219790;23;20027;-83
2022/06/23 04:46:29;;;;;;;12.13;8.88;;;13.20;99.90;;;;;;6220247;23;20016;-82
2022/06/23 04:49:00;;;;;;;12.63;9.02;;;13.20;99.90;;;;;;6195291;23;20329;-81
2022/06/23 04:51:31;;;;;;;12.45;9.27;;;13.30;99.90;;;;;;6220736;23;20020;-82
2022/06/23 04:54:00;;;;;;;12.10;9.60;;;13.40;99.90;;;;;;6247041;23;20019;-82
2022/06/23 04:56:38;;;;;;;15.77;10.48;;;13.40;99.90;;;;;;6246961;23;20078;-82
2022/06/23 04:59:43;;;;;;;15.35;10.10;;;13.50;99.90;;;;;;6220161;23;20073;-82
2022/06/23 05:02:17;;;;;;;12.10;9.88;;;13.60;99.90;;;;;;6220042;23;20024;-81
2022/06/23 05:04:46;;;;;;;11.52;9.50;;;13.70;99.90;;;;;;6246899;23;20027;-82
2022/06/23 05:07:53;;;;;;;15.40;9.75;;;13.80;99.90;;;;;;6220029;23;20011;-81
2022/06/23 05:10:28;;;;;;;12.82;9.88;;;13.90;99.90;;;;;;6099839;23;20060;-81
2022/06/23 05:13:03;;;;;;;13.75;9.30;;;14.00;99.90;;;;;;6124488;23;20029;-82
2022/06/23 05:15:34;;;;;;;15.02;9.23;;;14.10;99.90;;;;;;6124192;23;20024;-82
2022/06/23 05:18:13;;;;;;;14.45;9.63;;;14.20;99.90;;;;;;6099813;23;20022;-81
2022/06/23 05:20:46;;;;;;;13.13;8.35;;;14.30;99.90;;;;;;6099973;23;20017;-81
2022/06/23 05:23:25;;;;;;;14.52;9.10;;;14.40;99.90;;;;;;6099827;23;20038;-82
2022/06/23 05:25:55;;;;;;;16.65;9.50;;;14.50;99.90;;;;;;6099266;23;20014;-82
2022/06/23 05:28:25;;;;;;;13.30;9.50;;;14.70;99.90;;;;;;6100019;23;20096;-83
2022/06/23 05:30:56;;;;;;;15.18;9.85;;;14.70;99.90;;;;;;6124329;23;20667;-82
2022/06/23 05:33:37;;;;;;;13.50;9.63;;;14.90;99.90;;;;;;6099711;23;20025;-82
2022/06/23 05:36:05;;;;;;;16.13;9.40;;;15.00;99.90;;;;;;6124350;23;20018;-82
2022/06/23 05:38:41;;;;;;;16.15;9.68;;;15.10;99.90;;;;;;6124210;23;20022;-83
2022/06/23 05:41:18;;;;;;;11.55;9.60;;;15.20;99.90;;;;;;6100654;23;20026;-81
2022/06/23 05:43:46;;;;;;;12.82;8.98;;;15.40;99.90;;;;;;6103851;23;20115;-82
2022/06/23 05:46:20;;;;;;;14.48;9.85;;;15.50;99.90;;;;;;6128909;23;20020;-82
2022/06/23 05:49:10;;;;;;;16.27;9.15;;;15.60;99.90;;;;;;6195262;23;20547;-81
2022/06/23 05:51:59;;;;;;;13.45;9.27;;;15.80;99.90;;;;;;6246780;23;20016;-82
2022/06/23 05:54:36;;;;;;;13.95;9.20;;;15.90;99.90;;;;;;6246766;23;20008;-81
2022/06/23 05:57:11;;;;;;;12.73;9.13;;;16.10;99.90;;;;;;6220821;23;20335;-82
2022/06/23 06:00:07;;;;;;;12.30;8.80;;;16.20;99.90;;;;;;6220573;23;20020;-82
2022/06/23 06:02:48;;;;;;;13.88;8.30;;;16.40;99.90;;;;;;6215134;23;20015;-81
2022/06/23 06:05:33;;;;;;;10.98;8.30;;;16.60;99.90;;;;;;6216249;23;20017;-81
2022/06/23 06:08:01;;;;;;;16.35;8.30;;;16.70;99.90;;;;;;6215110;23;20393;-82
2022/06/23 06:10:32;;;;;;;9.77;8.23;;;16.80;99.90;;;;;;6217148;23;20059;-82
2022/06/23 06:12:59;;;;;;;11.93;8.13;;;17.00;99.90;;;;;;6216537;23;20096;-82
2022/06/23 06:15:37;;;;;;;11.45;8.13;;;17.10;99.90;;;;;;6214870;23;20047;-82
2022/06/23 06:18:26;;;;;;;11.52;8.27;;;17.20;99.90;;;;;;6216218;23;20027;-82
2022/06/23 06:20:55;;;;;;;11.75;8.52;;;17.30;99.90;;;;;;6214908;23;20027;-82
2022/06/23 06:23:44;;;;;;;14.63;8.52;;;17.40;99.90;;;;;;6214660;23;20016;-82
2022/06/23 06:26:13;;;;;;;13.40;8.23;;;17.60;99.90;;;;;;6214873;23;20049;-82
2022/06/23 06:28:39;;;;;;;15.88;8.73;;;17.70;99.90;;;;;;6214789;23;20024;-82
2022/06/23 06:31:26;;;;;;;10.27;6.65;;;17.90;99.90;;;;;;6214554;23;20021;-82
2022/06/23 06:34:10;;;;;;;9.52;7.22;;;18.00;99.90;;;;;;6214825;23;20017;-82
2022/06/23 06:36:48;;;;;;;10.27;7.63;;;18.20;99.90;;;;;;6214731;23;20070;-82
2022/06/23 06:39:38;;;;;;;10.70;7.55;;;18.40;99.90;;;;;;6216906;23;20047;-82
2022/06/23 06:42:05;;;;;;;9.98;7.13;;;18.50;99.90;;;;;;6217242;23;20087;-83
2022/06/23 06:44:36;;;;;;;10.90;7.28;;;18.70;99.90;;;;;;6215078;23;20052;-81
2022/06/23 06:47:02;;;;;;;8.57;6.75;;;19.00;99.90;;;;;;6216947;23;20052;-81
2022/06/23 06:49:29;;;;;;;16.33;7.47;;;19.70;99.90;;;;;;6216999;23;20015;-82
2022/06/23 06:51:57;;;;;;;10.70;6.38;;;20.60;99.90;;;;;;6215336;23;20025;-84
2022/06/23 06:54:39;;;;;;;10.30;6.07;;;21.50;99.90;;;;;;6214423;23;20020;-82
2022/06/23 06:57:12;;;;;;;10.35;6.35;;;22.40;99.90;;;;;;6214633;23;20431;-83
2022/06/23 06:59:47;;;;;;;14.15;6.35;;;23.00;99.90;;;;;;6215932;23;20023;-82
2022/06/23 07:02:15;;;;;;;10.02;6.13;;;23.50;99.90;;;;;;6214493;23;20019;-83
2022/06/23 07:04:50;;;;;;;11.90;5.30;;;23.90;99.90;;;;;;6215809;23;20340;-82
2022/06/23 07:07:23;;;;;;;9.82;5.53;;;24.20;99.90;;;;;;6215808;23;20124;-82
2022/06/23 07:09:57;;;;;;;7.57;5.07;;;24.30;99.90;;;;;;6214528;23;20112;-83
2022/06/23 07:12:52;;;;;;;8.95;5.60;;;24.30;99.90;;;;;;6214748;23;20013;-83
2022/06/23 07:15:35;;;;;;;7.45;5.32;;;24.30;99.90;;;;;;6215673;23;20411;-83
2022/06/23 07:18:11;;;;;;;7.30;4.82;;;24.40;99.90;;;;;;6215596;23;20052;-83
2022/06/23 07:20:55;;;;;;;7.15;5.25;;;24.50;99.90;;;;;;6216469;23;20021;-83
2022/06/23 07:23:29;;;;;;;6.82;4.72;;;24.80;99.90;;;;;;6217582;23;20021;-83
2022/06/23 07:26:04;;;;;;;8.93;5.07;;;24.90;99.90;;;;;;6217764;23;20346;-82
2022/06/23 07:28:45;;;;;;;7.90;4.93;;;25.40;99.90;;;;;;6218026;23;20016;-84
2022/06/23 07:31:16;;;;;;;8.98;4.63;;;25.90;97.50;;;;;;6216142;23;20341;-83
2022/06/23 07:33:50;;;;;;;10.23;4.80;;;26.30;94.70;;;;;;6216098;23;20017;-83
2022/06/23 07:36:47;;;;;;;8.27;4.82;;;26.90;90.60;;;;;;6215684;23;20016;-83
2022/06/23 07:39:35;;;;;;;6.68;4.90;;;27.60;72.30;;;;;;6216100;23;20024;-83
2022/06/23 07:42:04;;;;;;;8.32;4.70;;;28.10;72.40;;;;;;6217511;23;20391;-83
2022/06/23 07:44:52;;;;;;;8.10;4.75;;;28.50;68.90;;;;;;6190671;23;20108;-83
2022/06/23 07:47:18;;;;;;;6.28;4.82;;;29.10;62.80;;;;;;6216065;23;20348;-83
2022/06/23 07:49:44;;;;;;;6.47;4.03;;;29.60;62.30;;;;;;6217348;23;20096;-83
2022/06/23 07:52:19;;;;;;;10.30;4.32;;;30.10;60.80;;;;;;6216221;23;20048;-83
2022/06/23 07:54:46;;;;;;;6.20;4.40;;;30.60;57.10;;;;;;6217658;23;20055;-83
2022/06/23 07:57:12;;;;;;;7.90;4.05;;;30.90;56.80;;;;;;6217072;23;20012;-83
2022/06/23 08:00:03;;;;;;;7.47;3.60;;;31.20;55.80;;;;;;6215819;23;20070;-84
2022/06/23 08:02:36;;;;;;;5.85;3.15;;;31.50;51.10;;;;;;6236870;23;20016;-83
2022/06/23 08:05:20;;;;;;;4.93;3.40;;;31.60;52.60;;;;;;6196889;23;20065;-84
2022/06/23 08:07:46;;;;;;;6.55;3.17;;;31.80;51.70;;;;;;6247500;23;20020;-83
2022/06/23 08:10:26;;;;;;;6.90;3.28;;;31.80;52.10;;;;;;6248015;23;20024;-83
2022/06/23 08:12:57;;;;;;;8.98;3.75;;;32.20;50.20;;;;;;6247550;23;20012;-83
2022/06/23 08:18:34;;;;;;;5.93;3.45;;;32.70;49.20;;;;;;6221080;23;20024;-83
2022/06/23 08:21:10;;;;;;;5.65;3.70;;;33.00;50.10;;;;;;6248097;23;20016;-84
2022/06/23 08:23:51;;;;;;;5.60;3.65;;;33.20;48.70;;;;;;6220761;23;20019;-83
2022/06/23 08:26:21;;;;;;;6.10;3.25;;;33.40;48.80;;;;;;6195791;23;20024;-84
2022/06/23 08:28:49;;;;;;;7.90;3.10;;;33.70;48.00;;;;;;6194676;23;20024;-84
2022/06/23 08:31:16;;;;;;;5.00;3.10;;;34.00;47.10;;;;;;6247017;23;20016;-84
2022/06/23 08:33:41;;;;;;;7.55;3.10;;;34.30;46.90;;;;;;6247195;23;20085;-84
2022/06/23 08:36:13;;;;;;;5.72;3.35;;;34.70;46.50;;;;;;6247414;23;20016;-83
2022/06/23 08:38:46;;;;;;;7.50;3.03;;;35.10;46.10;;;;;;6220394;23;20016;-83
2022/06/23 08:41:27;;;;;;;4.32;3.20;;;35.30;44.60;;;;;;6247327;23;20062;-86
2022/06/23 08:44:05;;;;;;;3.50;2.92;;;35.50;45.00;;;;;;6247510;23;20470;-84
2022/06/23 08:46:36;;;;;;;6.95;3.50;;;35.40;44.30;;;;;;6247445;23;20020;-84
2022/06/23 08:49:26;;;;;;;5.68;3.35;;;35.40;44.10;;;;;;6220127;23;20073;-84
2022/06/23 08:52:15;;;;;;;6.00;3.35;;;35.40;44.80;;;;;;6220121;23;20016;-83
2022/06/23 08:54:44;;;;;;;4.78;2.88;;;35.60;44.00;;;;;;6246891;23;20024;-84
2022/06/23 08:57:30;;;;;;;7.60;3.30;;;35.70;43.70;;;;;;6246744;23;20012;-84
2022/06/23 09:00:09;;;;;;;4.55;3.03;;;35.90;43.80;;;;;;6220092;23;20012;-84
2022/06/23 09:03:00;;;;;;;6.50;3.60;;;36.00;43.50;;;;;;6247427;23;20023;-83
2022/06/23 09:05:54;;;;;;;6.88;3.15;;;36.00;42.30;;;;;;6247410;23;20028;-84
2022/06/23 09:08:39;;;;;;;11.60;3.40;;;36.00;42.80;;;;;;6219660;23;20020;-84
2022/06/23 09:11:18;;;;;;;5.93;3.03;;;35.90;43.10;;;;;;6220160;23;20016;-84
2022/06/23 09:13:58;;;;;;;4.38;3.03;;;36.10;42.60;;;;;;6220383;23;20016;-85
2022/06/23 09:16:36;;;;;;;4.05;2.42;;;36.30;41.70;;;;;;6247078;23;20016;-83
2022/06/23 09:19:23;;;;;;;5.40;3.35;;;36.40;42.90;;;;;;6246827;23;20062;-84
2022/06/23 09:22:14;;;;;;;3.90;2.58;;;36.60;40.90;;;;;;6219674;23;20023;-84
2022/06/23 09:25:05;;;;;;;4.50;2.75;;;36.70;42.60;;;;;;6196259;23;20012;-83
2022/06/23 09:27:42;;;;;;;2.92;2.45;;;36.90;42.00;;;;;;6220382;23;20051;-82
2022/06/23 09:30:44;;;;;;;5.90;2.92;;;37.00;42.80;;;;;;6247051;23;20016;-84
2022/06/23 09:33:10;;;;;;;5.78;2.83;;;37.30;43.00;;;;;;6220119;23;20025;-83
2022/06/23 09:35:55;;;;;;;4.18;2.78;;;37.40;42.10;;;;;;6220246;23;20020;-83
2022/06/23 09:38:27;;;;;;;4.32;2.45;;;37.50;40.00;;;;;;6221087;23;20012;-84
2022/06/23 09:41:18;;;;;;;6.18;2.35;;;37.30;41.10;;;;;;6220499;23;20095;-84
2022/06/23 09:43:50;;;;;;;4.25;2.60;;;37.30;41.70;;;;;;6246645;23;20094;-84
2022/06/23 09:46:35;;;;;;;4.95;2.50;;;37.60;40.90;;;;;;6220151;23;20109;-84
2022/06/23 09:49:12;;;;;;;5.93;2.70;;;37.90;41.80;;;;;;6247024;23;20357;-85
2022/06/23 09:51:40;;;;;;;5.22;2.97;;;38.10;40.00;;;;;;6247206;23;20024;-84
2022/06/23 09:54:45;;;;;;;7.88;2.78;;;38.10;39.10;;;;;;6246832;23;20397;-83
2022/06/23 09:57:31;;;;;;;6.97;3.00;;;38.00;38.80;;;;;;6223852;23;20016;-84
2022/06/23 10:00:09;;;;;;;7.30;2.92;;;37.80;40.80;;;;;;6220226;23;20012;-83
2022/06/23 10:02:42;;;;;;;4.20;3.00;;;37.90;38.90;;;;;;6246491;23;20147;-84
2022/06/23 10:05:35;;;;;;;7.93;3.30;;;38.00;39.40;;;;;;6246554;23;20035;-84
2022/06/23 10:08:31;;;;;;;5.85;3.10;;;38.20;39.10;;;;;;6246845;23;20020;-83
2022/06/23 10:11:32;;;;;;;4.97;3.08;;;38.30;39.10;;;;;;6219764;23;20042;-85
2022/06/23 10:14:18;;;;;;;6.00;3.10;;;38.40;38.90;;;;;;6247067;23;20016;-83
2022/06/23 10:17:02;;;;;;;5.85;3.40;;;38.40;38.80;;;;;;6246492;23;20016;-83
2022/06/23 10:19:58;;;;;;;4.40;2.60;;;38.30;38.70;;;;;;6220082;23;20031;-83
2022/06/23 10:22:33;;;;;;;5.10;2.75;;;38.50;38.00;;;;;;6246526;23;20017;-84
2022/06/23 10:25:31;;;;;;;5.10;2.78;;;38.60;38.30;;;;;;6219744;23;20019;-83
2022/06/23 10:28:29;;;;;;;9.02;4.03;;;38.60;38.40;;;;;;6247167;23;20313;-84
2022/06/23 10:31:13;;;;;;;4.20;2.35;;;38.70;38.00;;;;;;6246743;23;20154;-84
2022/06/23 10:33:52;;;;;;;5.40;2.50;;;38.80;38.50;;;;;;6246989;23;20378;-83
2022/06/23 10:36:27;;;;;;;3.93;2.40;;;39.00;37.80;;;;;;6246926;23;20087;-83
2022/06/23 10:39:12;;;;;;;4.45;2.85;;;39.10;38.00;;;;;;6193808;23;20019;-84
2022/06/23 10:41:56;;;;;;;5.28;2.80;;;39.10;37.90;;;;;;6248146;23;20018;-82
2022/06/23 10:44:34;;;;;;;7.03;2.60;;;39.00;37.60;;;;;;6222771;23;20021;-83
2022/06/23 10:47:33;;;;;;;6.82;2.33;;;39.10;37.80;;;;;;6196337;23;20016;-84
2022/06/23 10:50:16;;;;;;;5.28;2.20;;;39.40;38.00;;;;;;6246772;23;20035;-83
2022/06/23 10:53:13;;;;;;;6.00;2.33;;;39.60;38.40;;;;;;6219171;23;20025;-83
2022/06/23 10:56:00;;;;;;;9.77;2.67;;;39.80;37.50;;;;;;6220975;23;20059;-85
2022/06/23 10:58:48;;;;;;;6.97;2.47;;;39.70;36.60;;;;;;6248580;23;20031;-83
2022/06/23 11:01:26;;;;;;;9.32;2.60;;;39.60;36.40;;;;;;6247851;23;20020;-83
2022/06/23 11:03:52;;;;;;;5.22;2.88;;;39.80;36.40;;;;;;6248131;23;20023;-83
2022/06/23 11:06:45;;;;;;;5.25;2.25;;;39.80;36.10;;;;;;6221229;23;20016;-83
2022/06/23 11:09:38;;;;;;;8.05;2.30;;;39.70;36.90;;;;;;6248104;23;20419;-84
2022/06/23 11:12:12;;;;;;;4.07;2.25;;;39.60;36.20;;;;;;6247895;23;20436;-83
2022/06/23 11:14:57;;;;;;;5.03;2.55;;;39.80;37.70;;;;;;6247812;23;20110;-84
2022/06/23 11:18:00;;;;;;;6.80;2.60;;;40.10;36.60;;;;;;6222392;23;20012;-83
2022/06/23 11:20:32;;;;;;;5.03;2.45;;;40.40;35.60;;;;;;6248188;23;20470;-83
2022/06/23 11:23:01;;;;;;;4.90;2.17;;;40.50;36.30;;;;;;6221276;23;20024;-83
2022/06/23 11:25:49;;;;;;;5.03;2.23;;;40.40;36.10;;;;;;6221342;23;20016;-85
2022/06/23 11:28:35;;;;;;;6.85;2.35;;;40.60;37.00;;;;;;6221115;23;20020;-83
2022/06/23 11:31:17;;;;;;;4.05;2.22;;;40.80;36.10;;;;;;6247796;23;20149;-84
2022/06/23 11:34:11;;;;;;;5.63;2.30;;;40.80;36.60;;;;;;6247806;23;20027;-84
2022/06/23 11:36:36;;;;;;;5.28;2.13;;;40.90;35.90;;;;;;6195340;23;20024;-84
2022/06/23 11:39:21;;;;;;;6.32;2.22;;;41.00;36.00;;;;;;6247815;23;20027;-83
2022/06/23 11:42:29;;;;;;;4.55;2.25;;;41.10;34.70;;;;;;6247614;23;20030;-85
2022/06/23 11:45:42;;;;;;;2.72;1.73;;;40.90;34.90;;;;;;6246380;23;20356;-85
2022/06/23 11:48:37;;;;;;;4.03;1.92;;;41.00;34.30;;;;;;6125015;23;20026;-85
2022/06/23 11:51:06;;;;;;;10.98;1.75;;;41.10;34.90;;;;;;6125072;23;20165;-84
2022/06/23 11:53:34;;;;;;;4.60;2.00;;;41.20;34.10;;;;;;6124917;23;20025;-84
2022/06/23 11:56:25;;;;;;;2.72;1.60;;;41.20;32.90;;;;;;6125864;23;20477;-84
2022/06/23 11:59:19;;;;;;;4.55;1.58;;;40.70;32.20;;;;;;6038050;23;20020;-84
2022/06/23 12:01:45;;;;;;;12.02;1.80;;;40.40;33.50;;;;;;5953693;24;20462;-86
2022/06/23 12:04:47;;;;;;;4.45;1.75;;;40.60;33.40;;;;;;5953833;24;20028;-84
2022/06/23 12:07:26;;;;;;;4.47;1.88;;;40.80;32.00;;;;;;5953463;24;20087;-84
2022/06/23 12:10:15;;;;;;;3.03;1.80;;;40.90;32.40;;;;;;5954627;24;20033;-83
2022/06/23 12:12:43;;;;;;;6.25;1.75;;;40.90;32.60;;;;;;5954079;24;20021;-83
2022/06/23 12:15:13;;;;;;;2.30;1.40;;;40.80;31.90;;;;;;5930597;24;20058;-84
2022/06/23 12:17:47;;;;;;;4.57;1.90;;;40.60;33.20;;;;;;5957701;23;20023;-84
2022/06/23 12:20:49;;;;;;;4.35;2.20;;;40.50;34.00;;;;;;5990673;23;20517;-86
2022/06/23 12:23:23;;;;;;;4.35;2.08;;;40.70;34.00;;;;;;6038445;23;20026;-83
2022/06/23 12:26:09;;;;;;;2.33;1.90;;;40.80;33.60;;;;;;6038124;23;20059;-85
2022/06/23 12:28:49;;;;;;;2.88;1.73;;;41.00;32.30;;;;;;6038137;23;20019;-84
2022/06/23 12:31:17;;;;;;;7.18;1.80;;;41.00;31.90;;;;;;6014147;23;20562;-83
2022/06/23 12:34:09;;;;;;;4.18;1.80;;;41.10;31.40;;;;;;6038221;23;20396;-84
2022/06/23 12:37:00;;;;;;;2.75;1.60;;;41.10;30.60;;;;;;6081961;23;20478;-83
2022/06/23 12:39:37;;;;;;;4.13;1.80;;;40.80;30.90;;;;;;6247195;23;20491;-83
2022/06/23 12:42:33;;;;;;;3.25;1.90;;;40.50;32.20;;;;;;6247477;23;20023;-84
2022/06/23 12:45:43;;;;;;;2.83;1.67;;;40.40;31.60;;;;;;6099998;23;20018;-83
2022/06/23 12:48:23;;;;;;;4.30;1.77;;;40.30;31.30;;;;;;6037995;23;20019;-84
2022/06/23 12:51:04;;;;;;;2.90;1.65;;;40.20;31.90;;;;;;6038081;23;20419;-83
2022/06/23 12:53:55;;;;;;;4.85;1.83;;;40.40;32.40;;;;;;6037986;23;20062;-83
2022/06/23 12:56:58;;;;;;;3.85;1.80;;;40.60;30.60;;;;;;6038106;23;20491;-83
2022/06/23 12:59:57;;;;;;;4.40;1.60;;;40.50;31.10;;;;;;6038271;23;20046;-85
2022/06/23 13:02:31;;;;;;;3.17;1.73;;;40.20;32.60;;;;;;6038078;23;20067;-84
2022/06/23 13:05:17;;;;;;;2.80;1.70;;;40.30;31.90;;;;;;6038078;23;20094;-84
2022/06/23 13:07:55;;;;;;;3.30;1.60;;;40.40;31.90;;;;;;6037475;23;20059;-83
2022/06/23 13:10:27;;;;;;;4.50;2.20;;;40.40;31.60;;;;;;5991544;23;20023;-86
2022/06/23 13:12:52;;;;;;;2.33;1.67;;;40.40;31.60;;;;;;6037858;23;20019;-83
2022/06/23 13:15:44;;;;;;;3.05;2.05;;;40.40;32.40;;;;;;6037836;23;20078;-84
2022/06/23 13:18:54;;;;;;;2.60;1.73;;;40.40;33.10;;;;;;6037187;23;20094;-83
2022/06/23 13:21:27;;;;;;;2.40;1.70;;;39.70;32.40;;;;;;6052920;23;20037;-84
2022/06/23 13:24:08;;;;;;;5.72;2.10;;;38.90;32.70;;;;;;6121556;23;20016;-86
2022/06/23 13:26:57;;;;;;;3.22;2.30;;;38.60;34.70;;;;;;6246671;23;20024;-84
2022/06/23 13:29:33;;;;;;;6.00;2.00;;;38.20;34.30;;;;;;6220636;23;20023;-84
2022/06/23 13:32:12;;;;;;;4.35;2.17;;;37.80;34.70;;;;;;6218990;23;20039;-84
2022/06/23 13:34:53;;;;;;;5.57;1.90;;;37.90;34.70;;;;;;6246548;23;20070;-84
2022/06/23 13:37:42;;;;;;;2.95;2.00;;;38.10;34.40;;;;;;6193806;23;20012;-83
2022/06/23 13:40:37;;;;;;;4.85;2.20;;;38.10;34.90;;;;;;6246477;23;20020;-84
2022/06/23 13:43:18;;;;;;;4.00;2.10;;;38.40;33.20;;;;;;6219676;23;20142;-84
2022/06/23 13:45:53;;;;;;;4.07;2.08;;;38.20;34.50;;;;;;6246452;23;20016;-84
2022/06/23 13:48:45;;;;;;;3.75;1.98;;;38.30;34.60;;;;;;6246621;23;20016;-83
2022/06/23 13:51:26;;;;;;;3.22;2.05;;;38.60;35.10;;;;;;6246702;23;20070;-83
2022/06/23 13:54:20;;;;;;;4.22;2.20;;;39.10;33.40;;;;;;6246620;23;20012;-84
2022/06/23 13:57:05;;;;;;;4.20;2.20;;;39.40;33.30;;;;;;6246924;22;20347;-85
2022/06/23 14:00:35;;;;;;;4.05;2.28;;;39.40;33.20;;;;;;6247309;23;20016;-85